Главная страница
METAR-TAF:

METAR-TAF

Аэропорты :

Люблин, Польша

широта: 51-13-55N, долгота: 22-41-25E, высота над уровнем моря: 203 м

Текущие метеонаблюдения

Эта сводка был подготовлена 18 минут назад, в 00:30 UTC
Ветер 4 Узел от западно-северо-западный
Температура 20°C
Влажность 78%
Давление 1015 hPa
Видимость 10 км и более
Нет облачности ниже 1500 м, и нет кучево-дождевой облачности

METAR: EPLB 210030Z 29004KT CAVOK 20/16 Q1015

Время: 02:48 (00:48 UTC)

Прогноз

Эта сводка был подготовлена 1 час и 18 минут назад, в 23:30 UTC
Прогноз действительный с 21-го 00 UTC до 21-го 09 UTC
Ветер 8 Узел от западный
Видимость 10 км и более
Нет облачности ниже 1500 м, и нет кучево-дождевой облачности
Вероятность 40% :
временами
С 21-го 01 UTC до 21-го 06 UTC
Рассеянная облачность на высоте 1300 фута

TAF: EPLB 202330Z 2100/2109 28008KT CAVOK PROB40 TEMPO 2101/2106 BKN013

Метеонаблюдения и прогнозы для более 4000 аэропортов (сводки METAR и TAF).

Имеющиеся станции представлены на карте желтыми и красными точками.

Чтобы увидеть название станции, наведите на нее мышь.

Затем щелкните, чтобы увидеть метеонаблюдения и метеопрогнозы.

Управление картой: чтобы увеличить масштаб, щелкните зеленые кнопки с черным крестиком; чтобы уменьшить масштаб, щелкните зеленую кнопку с тире; для просмотра соседних карт щелкайте зеленые стрелки.


METAR-TAF: